New Russia Township, Ohio
Current Conditions -  °F | °C
As of 7:53 AM on Thursday 18 Dec 2014 (Local Time) from KLPR Reporting Station
Overcast Overcast  
Wind Chill: 22°   Ceiling: 2300
Heat Index: 28°   Visibility: 10mi
Dew Point: 22°   Wind: 6mph
Humidity: 78%   Direction: 280°W
Pressure: 30.21"   Gusts: NA
Location:  41.2855°N, 82.2459°W
Report Text: KLPR 181253Z AUTO 28005KT 10SM OVC023 M02/M06 A3021 RMK AO2 SLP239 T10221056 TSNO
Loading
Personal Weather Stations






























Interactive Weather Map New forecast layout! Learn more

10-Day Weather Forecast

Advertisements
Track Severe Weather on mobile